Time;durP1;ratioP1;P1;durP2;ratioP2;P2;SDS_P1;SDS_P2;PMS_P1;PMS_P2;Temp;Humidity;BMP_temperature;BMP_pressure;BME280_temperature;BME280_humidity;BME280_pressure;Samples;Min_cycle;Max_cycle;Signal;HPM_P1;HPM_P2
2024/03/10 00:01:13;;;;;;;22.80;11.32;;;9.10;99.90;;;;;;6295544;28;20052;-80
2024/03/10 00:04:15;;;;;;;22.30;11.43;;;9.10;99.90;;;;;;6252977;28;20049;-81
2024/03/10 00:07:17;;;;;;;22.25;12.02;;;9.10;99.90;;;;;;6280573;28;20052;-81
2024/03/10 00:10:18;;;;;;;22.08;12.02;;;9.00;99.90;;;;;;6295235;28;20491;-82
2024/03/10 00:13:21;;;;;;;20.15;12.25;;;9.10;99.90;;;;;;6289009;28;20076;-81
2024/03/10 00:16:22;;;;;;;22.42;12.00;;;9.10;99.90;;;;;;6308132;28;20063;-81
2024/03/10 00:19:25;;;;;;;20.50;11.52;;;9.00;99.90;;;;;;6294976;28;20059;-82
2024/03/10 00:22:26;;;;;;;21.02;12.10;;;9.10;99.90;;;;;;6277620;28;20048;-82
2024/03/10 00:25:28;;;;;;;20.77;11.68;;;9.10;99.90;;;;;;6280818;28;20048;-82
2024/03/10 00:28:31;;;;;;;21.95;11.80;;;9.00;99.90;;;;;;6277220;28;20326;-82
2024/03/10 00:31:33;;;;;;;20.73;11.50;;;9.10;99.90;;;;;;6296139;28;20072;-81
2024/03/10 00:34:34;;;;;;;20.88;10.80;;;9.10;99.90;;;;;;6295133;28;20075;-82
2024/03/10 00:37:38;;;;;;;19.90;10.90;;;9.10;99.90;;;;;;6295385;28;20067;-82
2024/03/10 00:40:39;;;;;;;20.55;11.13;;;9.10;99.90;;;;;;6293967;28;20143;-82
2024/03/10 00:43:41;;;;;;;18.17;10.30;;;9.10;99.90;;;;;;6259396;28;20503;-82
2024/03/10 00:46:43;;;;;;;18.48;10.60;;;9.10;99.90;;;;;;6308952;28;20052;-80
2024/03/10 00:49:45;;;;;;;18.40;11.15;;;9.10;99.90;;;;;;6297443;28;20060;-82
2024/03/10 00:52:46;;;;;;;17.88;10.27;;;9.10;99.90;;;;;;6299170;28;20496;-82
2024/03/10 00:55:48;;;;;;;19.25;10.63;;;9.10;99.90;;;;;;6305742;28;20087;-82
2024/03/10 00:58:50;;;;;;;17.38;10.13;;;9.20;99.90;;;;;;6277856;28;20052;-83
2024/03/10 01:01:51;;;;;;;18.30;9.82;;;9.20;99.90;;;;;;6296212;28;20056;-83
2024/03/10 01:04:53;;;;;;;19.33;10.15;;;9.20;99.90;;;;;;6295145;28;20080;-83
2024/03/10 01:07:55;;;;;;;17.02;9.00;;;9.20;99.90;;;;;;6317978;28;20063;-82
2024/03/10 01:10:57;;;;;;;15.02;8.45;;;9.20;99.90;;;;;;6294820;28;20105;-82
2024/03/10 01:13:59;;;;;;;15.57;8.68;;;9.20;99.90;;;;;;6275684;28;20060;-83
2024/03/10 01:17:04;;;;;;;15.27;9.32;;;9.30;99.90;;;;;;6309023;28;20508;-83
2024/03/10 01:20:06;;;;;;;15.73;9.55;;;9.30;99.90;;;;;;6251205;28;20160;-85
2024/03/10 01:23:10;;;;;;;15.27;8.57;;;9.30;99.90;;;;;;6293774;28;20093;-82
2024/03/10 01:26:11;;;;;;;15.15;9.07;;;9.30;99.90;;;;;;6275855;28;20144;-82
2024/03/10 01:29:16;;;;;;;14.40;9.23;;;9.30;99.90;;;;;;6277217;28;20059;-82
2024/03/10 01:32:17;;;;;;;12.60;7.15;;;9.30;99.90;;;;;;6275632;28;20052;-82
2024/03/10 01:35:19;;;;;;;14.35;7.28;;;9.30;99.90;;;;;;6275601;28;20504;-81
2024/03/10 01:38:21;;;;;;;13.10;7.15;;;9.30;99.90;;;;;;6294314;28;20154;-82
2024/03/10 01:41:25;;;;;;;9.27;5.43;;;9.30;99.90;;;;;;6313391;28;20411;-82
2024/03/10 01:44:28;;;;;;;8.23;5.10;;;9.30;99.90;;;;;;6274663;28;20052;-83
2024/03/10 01:47:30;;;;;;;10.68;4.93;;;9.30;99.90;;;;;;6275572;28;20064;-83
2024/03/10 01:50:32;;;;;;;8.43;4.60;;;9.20;99.90;;;;;;6293472;28;20056;-83
2024/03/10 01:53:34;;;;;;;8.85;4.78;;;9.20;99.90;;;;;;6276272;28;20394;-84
2024/03/10 01:56:36;;;;;;;7.63;4.30;;;9.20;99.90;;;;;;6297571;28;20048;-86
2024/03/10 01:59:38;;;;;;;7.47;3.90;;;9.10;99.90;;;;;;6260573;28;20053;-85
2024/03/10 02:02:40;;;;;;;5.45;3.60;;;9.10;99.90;;;;;;6301857;28;20048;-86
2024/03/10 02:05:42;;;;;;;8.23;4.00;;;9.10;99.90;;;;;;6285300;28;20048;-87
2024/03/10 02:08:46;;;;;;;5.85;3.33;;;8.90;99.90;;;;;;6284323;28;20063;-88
2024/03/10 02:11:48;;;;;;;5.90;3.20;;;9.00;99.90;;;;;;6290247;28;20507;-88
2024/03/10 02:14:50;;;;;;;6.40;3.40;;;9.00;99.90;;;;;;6241216;28;20140;-87
2024/03/10 02:17:51;;;;;;;4.88;3.00;;;8.90;99.90;;;;;;6247366;28;20064;-85
2024/03/10 02:20:53;;;;;;;6.88;3.30;;;8.90;99.90;;;;;;6268681;28;20454;-84
2024/03/10 02:23:55;;;;;;;6.40;3.25;;;8.90;99.90;;;;;;6273305;28;20063;-87
2024/03/10 02:26:57;;;;;;;5.63;3.08;;;8.90;99.90;;;;;;6251055;28;20351;-88
2024/03/10 02:30:00;;;;;;;5.90;3.05;;;8.90;99.90;;;;;;6254251;28;20496;-89
2024/03/10 02:49:47;;;;;;;6.15;3.50;;;8.80;99.90;;;;;;6273385;28;20135;-88
2024/03/10 02:52:49;;;;;;;5.72;3.40;;;8.80;99.90;;;;;;6251426;28;20072;-87
2024/03/10 02:55:50;;;;;;;8.23;3.67;;;8.80;99.90;;;;;;6246567;28;20064;-85
2024/03/10 02:58:52;;;;;;;7.30;4.05;;;8.70;99.90;;;;;;6245921;28;20053;-86
2024/03/10 03:01:54;;;;;;;8.38;4.40;;;8.70;99.90;;;;;;6253223;28;20492;-89
2024/03/10 03:04:56;;;;;;;7.35;4.20;;;8.60;99.90;;;;;;6283087;28;20060;-88
2024/03/10 03:07:59;;;;;;;6.95;4.38;;;8.70;99.90;;;;;;6256756;28;20144;-86
2024/03/10 03:11:01;;;;;;;7.20;3.97;;;8.60;99.90;;;;;;6261527;28;20386;-87
2024/03/10 03:14:03;;;;;;;5.80;3.55;;;8.70;99.90;;;;;;6254416;28;20084;-84
2024/03/10 03:17:05;;;;;;;5.13;3.33;;;8.60;99.90;;;;;;6301994;28;20478;-86
2024/03/10 03:20:16;;;;;;;5.95;3.40;;;8.50;99.90;;;;;;6300521;28;20470;-87
2024/03/10 03:23:18;;;;;;;6.93;3.17;;;8.50;99.90;;;;;;6317894;28;20085;-86
2024/03/10 03:26:20;;;;;;;5.90;3.40;;;8.50;99.90;;;;;;6294696;28;20052;-85
2024/03/10 03:29:21;;;;;;;5.35;2.92;;;8.50;99.90;;;;;;6279485;28;20079;-84
2024/03/10 03:32:23;;;;;;;5.93;3.22;;;8.50;99.90;;;;;;6286273;28;20645;-86
2024/03/10 03:35:25;;;;;;;5.53;2.83;;;8.40;99.90;;;;;;6283355;28;20049;-86
2024/03/10 03:38:27;;;;;;;5.35;2.95;;;8.50;99.90;;;;;;6299124;28;20055;-85
2024/03/10 03:41:29;;;;;;;5.85;2.70;;;8.50;99.90;;;;;;6301021;28;20427;-86
2024/03/10 03:44:31;;;;;;;6.40;2.78;;;8.50;99.90;;;;;;6270935;28;20063;-86
2024/03/10 03:47:33;;;;;;;4.53;2.50;;;8.50;99.90;;;;;;6308076;28;20055;-86
2024/03/10 03:50:35;;;;;;;4.88;2.67;;;8.40;99.90;;;;;;6321097;28;20350;-85
2024/03/10 03:53:37;;;;;;;4.85;2.53;;;8.40;99.90;;;;;;6284316;28;20048;-85
2024/03/10 03:56:40;;;;;;;4.47;2.40;;;8.40;99.90;;;;;;6279143;28;20052;-85
2024/03/10 03:59:43;;;;;;;5.65;2.80;;;8.40;99.90;;;;;;6280979;28;20081;-86
2024/03/10 04:02:46;;;;;;;4.78;2.70;;;8.50;99.90;;;;;;6279236;28;20079;-86
2024/03/10 04:05:48;;;;;;;5.00;2.30;;;8.40;99.90;;;;;;6299609;28;20517;-87
2024/03/10 04:08:53;;;;;;;6.25;2.80;;;8.40;99.90;;;;;;6282213;28;20135;-87
2024/03/10 04:11:59;;;;;;;5.65;2.92;;;8.40;99.90;;;;;;6301307;28;20145;-87
2024/03/10 04:15:01;;;;;;;5.55;2.80;;;8.40;99.90;;;;;;6245260;28;20576;-88
2024/03/10 04:18:06;;;;;;;5.60;3.03;;;8.40;99.90;;;;;;6271384;28;20413;-86
2024/03/10 04:21:08;;;;;;;5.50;2.85;;;8.40;99.90;;;;;;6247403;28;20049;-86
2024/03/10 04:24:10;;;;;;;6.55;3.00;;;8.40;99.90;;;;;;6270664;28;20060;-86
2024/03/10 04:27:12;;;;;;;6.38;2.80;;;8.40;99.90;;;;;;6247680;28;20049;-86
2024/03/10 04:30:16;;;;;;;4.70;2.80;;;8.40;99.90;;;;;;6260697;28;20060;-86
2024/03/10 04:33:17;;;;;;;5.63;3.10;;;8.40;99.90;;;;;;6246107;28;20057;-86
2024/03/10 04:36:19;;;;;;;7.35;3.13;;;8.40;99.90;;;;;;6268374;28;20055;-87
2024/03/10 04:39:21;;;;;;;4.57;3.00;;;8.30;99.90;;;;;;6264472;28;20064;-88
2024/03/10 04:42:23;;;;;;;5.70;3.40;;;8.30;99.90;;;;;;6269569;28;20532;-88
2024/03/10 04:45:25;;;;;;;7.05;3.50;;;8.30;99.90;;;;;;6283126;23;20166;-82
2024/03/10 04:48:27;;;;;;;5.68;3.30;;;8.30;99.90;;;;;;6294795;28;20048;-82
2024/03/10 04:51:29;;;;;;;7.95;3.92;;;8.30;99.90;;;;;;6294351;28;20610;-82
2024/03/10 04:54:30;;;;;;;8.85;3.75;;;8.20;99.90;;;;;;6294423;28;20491;-82
2024/03/10 04:57:33;;;;;;;6.82;3.78;;;8.20;99.90;;;;;;6276999;28;20056;-82
2024/03/10 05:00:35;;;;;;;7.53;3.90;;;8.10;99.90;;;;;;6259847;28;20075;-82
2024/03/10 05:03:39;;;;;;;7.95;3.83;;;8.00;99.90;;;;;;6276613;28;20102;-82
2024/03/10 05:06:41;;;;;;;5.72;3.17;;;8.00;99.90;;;;;;6294124;28;20766;-82
2024/03/10 05:09:43;;;;;;;6.63;3.60;;;7.90;99.90;;;;;;6289042;28;20055;-82
2024/03/10 05:12:44;;;;;;;7.07;3.67;;;7.80;99.90;;;;;;6294131;28;20052;-81
2024/03/10 05:15:47;;;;;;;6.75;3.35;;;7.80;99.90;;;;;;6284750;28;20049;-82
2024/03/10 05:18:49;;;;;;;8.48;3.45;;;7.90;99.90;;;;;;6255131;28;20131;-82
2024/03/10 05:21:50;;;;;;;5.55;3.22;;;7.90;99.90;;;;;;6276396;28;20059;-82
2024/03/10 05:24:52;;;;;;;6.15;3.22;;;8.00;99.90;;;;;;6293554;28;20055;-82
2024/03/10 05:27:54;;;;;;;6.57;2.90;;;8.00;99.90;;;;;;6275348;28;20052;-82
2024/03/10 05:30:56;;;;;;;6.22;2.90;;;8.00;99.90;;;;;;6277551;28;20052;-82
2024/03/10 05:33:57;;;;;;;5.30;2.83;;;8.10;99.90;;;;;;6269003;28;20072;-82
2024/03/10 05:36:59;;;;;;;5.53;2.92;;;8.10;99.90;;;;;;6306854;28;20048;-82
2024/03/10 05:40:01;;;;;;;7.75;2.42;;;8.10;99.90;;;;;;6313749;28;20052;-82
2024/03/10 05:43:02;;;;;;;6.38;2.80;;;8.10;99.90;;;;;;6276255;28;20399;-82
2024/03/10 05:46:04;;;;;;;5.88;2.85;;;8.10;99.90;;;;;;6277542;28;20048;-81
2024/03/10 05:49:06;;;;;;;5.95;2.78;;;8.10;99.90;;;;;;6295259;28;20056;-81
2024/03/10 05:52:07;;;;;;;4.00;2.45;;;8.10;99.90;;;;;;6292208;28;20049;-81
2024/03/10 05:55:09;;;;;;;6.05;2.85;;;8.10;99.90;;;;;;6275576;28;20053;-81
2024/03/10 05:58:12;;;;;;;5.47;3.00;;;8.10;99.90;;;;;;6283055;28;20055;-80
2024/03/10 06:01:15;;;;;;;6.05;2.97;;;8.10;99.90;;;;;;6293466;28;20149;-81
2024/03/10 06:04:17;;;;;;;5.00;2.50;;;8.20;99.90;;;;;;6269031;28;20060;-81
2024/03/10 06:07:19;;;;;;;4.85;2.63;;;8.10;99.90;;;;;;6296747;28;20781;-81
2024/03/10 06:10:21;;;;;;;5.82;3.15;;;8.20;99.90;;;;;;6293536;28;20052;-81
2024/03/10 06:13:22;;;;;;;8.50;2.92;;;8.20;99.90;;;;;;6259053;28;20048;-79
2024/03/10 06:16:25;;;;;;;5.95;3.00;;;8.10;99.90;;;;;;6303728;28;20052;-80
2024/03/10 06:26:12;;;;;;;8.63;3.45;;;8.20;99.90;;;;;;6280119;28;20048;-81
2024/03/10 06:29:14;;;;;;;6.10;3.58;;;8.20;99.90;;;;;;6289422;28;20147;-80
2024/03/10 06:32:15;;;;;;;6.28;3.75;;;8.20;99.90;;;;;;6278361;28;20105;-80
2024/03/10 06:35:17;;;;;;;6.40;3.80;;;8.20;99.90;;;;;;6277774;28;20063;-81
2024/03/10 06:38:19;;;;;;;7.63;4.20;;;8.30;99.90;;;;;;6298869;28;20053;-80
2024/03/10 06:41:21;;;;;;;6.53;3.85;;;8.30;99.90;;;;;;6298440;28;20499;-80
2024/03/10 06:44:23;;;;;;;6.55;3.88;;;8.30;99.90;;;;;;6274634;28;20071;-81
2024/03/10 06:47:26;;;;;;;7.82;4.50;;;8.30;99.90;;;;;;6279944;28;20055;-80
2024/03/10 06:50:28;;;;;;;7.97;4.55;;;8.30;99.90;;;;;;6297630;28;20056;-81
2024/03/10 06:53:30;;;;;;;8.98;4.78;;;8.30;99.90;;;;;;6296263;28;20063;-79
2024/03/10 06:56:32;;;;;;;10.32;4.90;;;8.40;99.90;;;;;;6297654;28;20393;-79
2024/03/10 06:59:34;;;;;;;7.72;4.50;;;8.40;99.90;;;;;;6291130;28;20083;-80
2024/03/10 07:02:37;;;;;;;8.95;5.10;;;8.40;99.90;;;;;;6298118;28;20207;-80
2024/03/10 07:05:43;;;;;;;7.80;4.57;;;8.40;99.90;;;;;;6295040;28;20480;-80
2024/03/10 07:08:44;;;;;;;9.27;5.18;;;8.50;99.90;;;;;;6308759;28;20052;-80
2024/03/10 07:11:46;;;;;;;11.00;5.40;;;8.50;99.90;;;;;;6319082;28;20052;-80
2024/03/10 07:14:47;;;;;;;8.68;5.50;;;8.50;99.90;;;;;;6279472;28;20079;-80
2024/03/10 07:17:50;;;;;;;10.23;5.15;;;8.60;99.90;;;;;;6296853;28;20056;-80
2024/03/10 07:20:52;;;;;;;9.43;5.47;;;8.60;99.90;;;;;;6290902;28;20085;-80
2024/03/10 07:23:53;;;;;;;8.35;4.75;;;8.70;99.90;;;;;;6296451;28;20052;-82
2024/03/10 07:26:55;;;;;;;10.10;6.15;;;8.70;99.90;;;;;;6298058;28;20052;-81
2024/03/10 07:29:58;;;;;;;12.48;5.82;;;8.70;99.90;;;;;;6287962;28;20048;-81
2024/03/10 07:32:59;;;;;;;11.25;5.65;;;8.70;99.90;;;;;;6300914;28;20059;-81
2024/03/10 07:36:01;;;;;;;9.93;6.20;;;8.70;99.90;;;;;;6278515;28;20048;-81
2024/03/10 07:39:06;;;;;;;10.70;6.15;;;8.80;99.90;;;;;;6295910;28;20404;-81
2024/03/10 07:42:09;;;;;;;10.80;6.50;;;8.80;99.90;;;;;;6278444;28;20048;-82
2024/03/10 07:45:11;;;;;;;11.48;6.28;;;8.80;99.90;;;;;;6285977;28;20060;-81
2024/03/10 07:48:13;;;;;;;9.30;5.97;;;8.90;99.90;;;;;;6296009;28;20090;-81
2024/03/10 07:51:15;;;;;;;13.77;6.38;;;9.00;99.90;;;;;;6300613;28;20109;-81
2024/03/10 07:54:16;;;;;;;10.23;6.35;;;9.10;99.90;;;;;;6294191;28;20061;-81
2024/03/10 07:57:18;;;;;;;11.60;6.57;;;9.20;99.90;;;;;;6295975;28;20082;-81
2024/03/10 08:00:22;;;;;;;10.77;6.25;;;9.30;99.90;;;;;;6282010;28;20048;-81
2024/03/10 08:03:24;;;;;;;12.95;7.00;;;9.50;99.90;;;;;;6278169;28;20079;-81
2024/03/10 08:06:26;;;;;;;12.07;6.90;;;9.50;99.90;;;;;;6296118;28;20051;-82
2024/03/10 08:09:27;;;;;;;10.50;6.20;;;9.60;99.90;;;;;;6277357;28;20110;-81
2024/03/10 08:12:29;;;;;;;10.98;6.53;;;9.60;99.90;;;;;;6299733;28;20506;-82
2024/03/10 08:15:31;;;;;;;9.35;5.30;;;9.60;99.90;;;;;;6259714;28;20048;-81
2024/03/10 08:18:32;;;;;;;9.27;5.72;;;9.60;99.90;;;;;;6295704;28;20087;-81
2024/03/10 08:21:34;;;;;;;8.63;5.13;;;9.60;99.90;;;;;;6286259;28;20044;-81
2024/03/10 08:24:37;;;;;;;7.47;5.07;;;9.50;99.90;;;;;;6278898;28;20056;-81
2024/03/10 08:27:39;;;;;;;7.93;4.80;;;9.50;99.90;;;;;;6270575;28;20055;-81
2024/03/10 08:30:41;;;;;;;6.30;4.18;;;9.40;99.90;;;;;;6272417;28;20048;-81
2024/03/10 08:33:43;;;;;;;7.57;3.60;;;9.40;99.90;;;;;;6289918;28;20056;-81
2024/03/10 08:36:45;;;;;;;8.45;3.60;;;9.40;99.90;;;;;;6277279;28;20052;-83
2024/03/10 08:39:50;;;;;;;4.68;3.10;;;9.40;99.90;;;;;;6295030;28;20494;-82
2024/03/10 08:42:52;;;;;;;6.50;2.95;;;9.30;99.90;;;;;;6283231;28;20052;-81
2024/03/10 08:45:54;;;;;;;6.55;3.08;;;9.30;99.90;;;;;;6284418;28;20538;-81
2024/03/10 08:48:56;;;;;;;5.97;3.00;;;9.30;99.90;;;;;;6276775;28;20052;-81
2024/03/10 08:51:58;;;;;;;8.77;3.67;;;9.40;99.90;;;;;;6305286;28;20152;-82
2024/03/10 08:55:00;;;;;;;6.55;3.90;;;9.50;99.90;;;;;;6294183;28;20061;-81
2024/03/10 08:58:05;;;;;;;6.82;3.97;;;9.60;99.90;;;;;;6276523;28;20424;-82
2024/03/10 09:01:07;;;;;;;6.55;4.13;;;9.70;99.90;;;;;;6294476;28;20044;-81
2024/03/10 09:04:10;;;;;;;7.75;4.70;;;9.80;99.90;;;;;;6267569;28;20393;-82
2024/03/10 09:07:11;;;;;;;8.65;4.72;;;10.00;99.90;;;;;;6294715;28;20056;-81
2024/03/10 09:10:13;;;;;;;7.07;4.63;;;10.10;99.90;;;;;;6278535;28;20055;-81
2024/03/10 09:13:16;;;;;;;7.78;4.93;;;10.00;99.90;;;;;;6280396;28;20059;-82
2024/03/10 09:16:19;;;;;;;6.82;4.30;;;9.90;99.90;;;;;;6294218;28;20403;-82
2024/03/10 09:19:21;;;;;;;9.38;5.07;;;9.80;99.90;;;;;;6294869;28;20049;-80
2024/03/10 09:22:22;;;;;;;6.97;4.38;;;9.70;99.90;;;;;;6294490;28;20056;-81
2024/03/10 09:25:24;;;;;;;7.38;5.38;;;9.70;99.90;;;;;;6277214;28;20059;-82
2024/03/10 09:28:26;;;;;;;7.63;4.90;;;9.70;99.90;;;;;;6296792;28;20059;-83
2024/03/10 09:31:28;;;;;;;7.70;5.20;;;9.60;99.90;;;;;;6281916;28;20048;-80
2024/03/10 09:34:30;;;;;;;8.02;5.45;;;9.70;99.90;;;;;;6317619;28;20052;-82
2024/03/10 09:37:32;;;;;;;8.73;5.32;;;9.80;99.90;;;;;;6305583;28;20315;-82
2024/03/10 09:40:34;;;;;;;9.23;5.45;;;9.80;99.90;;;;;;6283294;28;20055;-82
2024/03/10 09:43:36;;;;;;;9.27;5.45;;;9.90;99.90;;;;;;6276742;28;20063;-82
2024/03/10 09:46:38;;;;;;;9.57;5.53;;;10.00;99.90;;;;;;6293373;28;20508;-82
2024/03/10 09:49:42;;;;;;;8.05;5.25;;;10.00;99.90;;;;;;6273575;28;20479;-82
2024/03/10 09:52:48;;;;;;;10.00;6.05;;;10.10;99.90;;;;;;6270123;28;20064;-83
2024/03/10 09:55:52;;;;;;;8.48;5.00;;;10.20;99.90;;;;;;6302399;28;20044;-82
2024/03/10 09:58:55;;;;;;;7.07;4.90;;;10.00;99.90;;;;;;6259050;28;20049;-82
2024/03/10 10:01:57;;;;;;;9.35;5.40;;;9.90;99.90;;;;;;6293779;28;20056;-80
2024/03/10 10:04:59;;;;;;;8.43;5.15;;;9.90;99.90;;;;;;6297217;28;20078;-84
2024/03/10 10:08:10;;;;;;;7.57;5.03;;;9.90;99.90;;;;;;6289344;28;20055;-85
2024/03/10 10:11:13;;;;;;;10.18;5.10;;;9.90;99.90;;;;;;6298093;28;20055;-84
2024/03/10 10:14:15;;;;;;;7.72;4.88;;;9.90;99.90;;;;;;6284884;28;20052;-83
2024/03/10 10:17:18;;;;;;;6.70;4.20;;;10.00;99.90;;;;;;6286434;28;20501;-83
2024/03/10 10:20:24;;;;;;;5.68;4.25;;;10.10;99.90;;;;;;6280563;28;20055;-83
2024/03/10 10:23:26;;;;;;;5.65;3.70;;;10.30;99.90;;;;;;6272218;28;20501;-84
2024/03/10 10:26:28;;;;;;;5.80;3.90;;;10.40;99.90;;;;;;6304770;28;20189;-83
2024/03/10 10:29:29;;;;;;;5.55;3.80;;;10.40;99.90;;;;;;6271652;28;20037;-84
2024/03/10 10:32:33;;;;;;;5.03;3.60;;;10.50;99.90;;;;;;6324862;28;20047;-84
2024/03/10 10:35:34;;;;;;;5.30;3.50;;;10.50;99.90;;;;;;6285361;28;20052;-83
2024/03/10 10:38:39;;;;;;;4.93;3.08;;;10.50;99.90;;;;;;6284837;28;20131;-82
2024/03/10 10:41:41;;;;;;;5.47;3.30;;;10.50;99.90;;;;;;6300686;28;20048;-82
2024/03/10 10:44:44;;;;;;;6.10;3.28;;;10.50;99.90;;;;;;6280403;28;20052;-84
2024/03/10 10:47:45;;;;;;;5.53;2.95;;;10.50;99.90;;;;;;6279840;28;20055;-84
2024/03/10 10:50:47;;;;;;;4.30;2.90;;;10.50;99.90;;;;;;6293833;28;20044;-83
2024/03/10 10:53:50;;;;;;;4.60;2.97;;;10.60;99.90;;;;;;6279643;28;20053;-84
2024/03/10 10:56:54;;;;;;;4.70;2.53;;;10.70;99.90;;;;;;6297425;28;20049;-85
2024/03/10 10:59:57;;;;;;;4.45;2.50;;;10.90;99.90;;;;;;6280137;28;20527;-84
2024/03/10 11:02:59;;;;;;;5.78;2.58;;;10.90;99.90;;;;;;6280058;28;20048;-84
2024/03/10 11:06:00;;;;;;;4.85;2.65;;;10.80;99.90;;;;;;6272909;28;20602;-84
2024/03/10 11:09:05;;;;;;;3.72;2.17;;;10.80;99.90;;;;;;6281945;28;20063;-85
2024/03/10 11:12:07;;;;;;;3.20;2.10;;;10.70;99.90;;;;;;6303225;28;20052;-84
2024/03/10 11:15:09;;;;;;;3.67;2.15;;;10.70;99.90;;;;;;6306510;28;20048;-86
2024/03/10 11:18:11;;;;;;;3.60;2.13;;;10.70;99.90;;;;;;6276459;28;20052;-86
2024/03/10 11:21:13;;;;;;;4.75;2.17;;;10.80;99.90;;;;;;6299194;28;20097;-87
2024/03/10 11:24:14;;;;;;;3.50;2.00;;;10.90;99.90;;;;;;6292086;28;20491;-85
2024/03/10 11:27:19;;;;;;;3.95;2.53;;;10.90;99.90;;;;;;6306753;28;20059;-87
2024/03/10 11:30:22;;;;;;;4.00;2.40;;;10.70;99.90;;;;;;6264834;28;20044;-84
2024/03/10 11:33:23;;;;;;;4.47;1.90;;;10.60;99.90;;;;;;6296865;28;20052;-83
2024/03/10 11:36:28;;;;;;;3.00;1.80;;;10.30;99.90;;;;;;6296090;28;20135;-85
2024/03/10 11:39:31;;;;;;;5.72;2.17;;;10.20;99.90;;;;;;6290918;28;20060;-85
2024/03/10 11:42:32;;;;;;;3.75;2.28;;;10.20;99.90;;;;;;6300740;28;20053;-86
2024/03/10 11:45:34;;;;;;;4.43;2.30;;;10.10;99.90;;;;;;6270460;28;20082;-86
2024/03/10 11:48:36;;;;;;;5.78;3.45;;;10.10;99.90;;;;;;6298400;28;20052;-81
2024/03/10 11:51:38;;;;;;;6.07;3.78;;;10.00;99.90;;;;;;6300110;28;20060;-86
2024/03/10 11:54:39;;;;;;;6.07;3.92;;;10.00;99.90;;;;;;6317820;28;20044;-86
2024/03/10 11:57:41;;;;;;;7.03;4.72;;;10.20;99.90;;;;;;6291321;28;20051;-86
2024/03/10 12:00:43;;;;;;;9.13;5.82;;;10.20;99.90;;;;;;6300154;28;20048;-88
2024/03/10 12:03:45;;;;;;;13.80;7.82;;;10.10;99.90;;;;;;6297441;28;20134;-82
2024/03/10 12:06:47;;;;;;;10.35;7.18;;;10.20;99.90;;;;;;6278618;28;20133;-88
2024/03/10 12:09:49;;;;;;;11.05;7.43;;;10.20;99.90;;;;;;6304376;28;20043;-87
2024/03/10 12:12:50;;;;;;;10.55;7.50;;;10.30;99.90;;;;;;6298240;28;20055;-84
2024/03/10 12:15:52;;;;;;;11.73;8.20;;;10.20;99.90;;;;;;6279761;28;20055;-86
2024/03/10 12:18:54;;;;;;;13.00;8.20;;;10.20;99.90;;;;;;6309068;28;20099;-91
2024/03/10 12:21:55;;;;;;;12.35;8.88;;;10.10;99.90;;;;;;6300513;28;20071;-87
2024/03/10 12:24:58;;;;;;;14.27;8.95;;;10.10;99.90;;;;;;6283847;28;20048;-84
2024/03/10 12:28:01;;;;;;;16.80;9.57;;;10.20;99.90;;;;;;6307027;28;20431;-86
2024/03/10 12:31:03;;;;;;;17.60;10.30;;;10.00;99.90;;;;;;6297742;28;20040;-85
2024/03/10 12:34:07;;;;;;;21.15;12.80;;;9.90;99.90;;;;;;6290324;28;20143;-85
2024/03/10 12:37:12;;;;;;;22.17;13.13;;;9.80;99.90;;;;;;6279212;28;20045;-84
2024/03/10 12:40:17;;;;;;;27.52;16.67;;;9.80;99.90;;;;;;6299919;28;20384;-84
2024/03/10 12:43:18;;;;;;;27.05;17.60;;;9.60;99.90;;;;;;6287205;28;20055;-85
2024/03/10 12:46:22;;;;;;;35.72;20.73;;;9.60;99.90;;;;;;6296313;28;20102;-85
2024/03/10 12:49:23;;;;;;;36.63;20.40;;;9.50;99.90;;;;;;6277972;28;20416;-87
2024/03/10 12:52:25;;;;;;;35.22;20.58;;;9.50;99.90;;;;;;6303230;28;20515;-86
2024/03/10 12:55:27;;;;;;;36.58;21.80;;;9.50;99.90;;;;;;6286712;28;20048;-86
2024/03/10 12:58:28;;;;;;;35.13;20.90;;;9.50;99.90;;;;;;6277108;28;20045;-86
2024/03/10 13:01:30;;;;;;;35.22;21.65;;;9.60;99.90;;;;;;6308054;28;20116;-87
2024/03/10 13:04:32;;;;;;;37.72;22.83;;;9.70;99.90;;;;;;6305946;28;20049;-89
2024/03/10 13:07:33;;;;;;;37.85;22.63;;;9.80;99.90;;;;;;6277230;28;20126;-86
2024/03/10 13:10:35;;;;;;;39.88;22.25;;;9.80;99.90;;;;;;6307215;28;20137;-85
2024/03/10 13:13:37;;;;;;;39.45;23.90;;;9.70;99.90;;;;;;6276988;28;20055;-85
2024/03/10 13:16:38;;;;;;;39.25;24.08;;;9.70;99.90;;;;;;6295479;28;20072;-87
2024/03/10 13:19:42;;;;;;;36.17;23.17;;;9.70;99.90;;;;;;6305585;28;20055;-87
2024/03/10 13:22:43;;;;;;;38.70;23.95;;;9.70;99.90;;;;;;6289549;28;20070;-87
2024/03/10 13:25:45;;;;;;;37.03;23.73;;;9.80;99.90;;;;;;6298451;28;20055;-87
2024/03/10 13:28:47;;;;;;;37.85;23.83;;;9.90;99.90;;;;;;6294317;28;20056;-87
2024/03/10 13:31:49;;;;;;;35.75;23.40;;;10.00;99.90;;;;;;6294791;28;20049;-87
2024/03/10 13:34:50;;;;;;;35.88;22.30;;;10.10;99.90;;;;;;6306832;28;20055;-86
2024/03/10 13:37:52;;;;;;;38.08;22.40;;;10.30;99.90;;;;;;6292983;28;20068;-86
2024/03/10 13:40:54;;;;;;;33.75;21.17;;;10.30;99.90;;;;;;6294375;28;20052;-86
2024/03/10 13:43:56;;;;;;;34.42;21.00;;;10.30;99.90;;;;;;6276135;28;20056;-85
2024/03/10 13:46:57;;;;;;;33.28;21.45;;;10.30;99.90;;;;;;6294697;28;20060;-86
2024/03/10 13:49:59;;;;;;;32.95;21.27;;;10.50;99.90;;;;;;6285015;28;20083;-84
2024/03/10 13:53:01;;;;;;;33.17;19.85;;;10.70;99.90;;;;;;6291535;28;20047;-85
2024/03/10 13:56:04;;;;;;;35.20;21.08;;;10.70;99.90;;;;;;6295499;28;20044;-85
2024/03/10 13:59:07;;;;;;;35.85;20.98;;;10.50;99.90;;;;;;6265810;28;20057;-87
2024/03/10 14:02:09;;;;;;;32.83;21.30;;;10.40;99.90;;;;;;6284886;28;20051;-86
2024/03/10 14:05:11;;;;;;;35.72;21.73;;;10.20;99.90;;;;;;6314302;28;20048;-83
2024/03/10 14:08:12;;;;;;;34.40;20.75;;;10.20;99.90;;;;;;6277840;28;20057;-88
2024/03/10 14:11:16;;;;;;;34.65;21.13;;;10.10;99.90;;;;;;6317742;28;20044;-87
2024/03/10 14:14:18;;;;;;;36.22;21.17;;;10.00;99.90;;;;;;6290258;28;20056;-89
2024/03/10 14:17:21;;;;;;;33.00;19.95;;;10.00;99.90;;;;;;6280015;28;20056;-88
2024/03/10 14:20:25;;;;;;;37.10;21.50;;;9.80;99.90;;;;;;6276612;28;20374;-84
2024/03/10 14:23:30;;;;;;;36.65;20.33;;;9.80;99.90;;;;;;6294016;28;20451;-85
2024/03/10 14:26:32;;;;;;;35.63;21.25;;;9.70;99.90;;;;;;6294108;28;20052;-83
2024/03/10 14:29:38;;;;;;;33.40;19.60;;;9.70;99.90;;;;;;6276567;28;20044;-84
2024/03/10 14:32:40;;;;;;;37.13;21.35;;;9.70;99.90;;;;;;6279244;28;20131;-85
2024/03/10 14:35:42;;;;;;;34.55;20.15;;;9.60;99.90;;;;;;6323845;28;20108;-84
2024/03/10 14:38:45;;;;;;;40.97;20.65;;;9.60;99.90;;;;;;6328294;28;20035;-84
2024/03/10 14:41:46;;;;;;;32.33;19.50;;;9.60;99.90;;;;;;6320372;28;20033;-85
2024/03/10 14:44:48;;;;;;;32.65;19.08;;;9.60;99.90;;;;;;6307196;28;20053;-84
2024/03/10 14:47:50;;;;;;;27.88;16.50;;;9.50;99.90;;;;;;6315386;28;20056;-84
2024/03/10 14:50:53;;;;;;;24.02;14.15;;;9.40;99.90;;;;;;6303348;28;20083;-83
2024/03/10 14:53:56;;;;;;;25.67;15.07;;;9.30;99.90;;;;;;6300513;28;20514;-84
2024/03/10 14:56:57;;;;;;;30.35;15.65;;;9.20;99.90;;;;;;6299210;28;20063;-84
2024/03/10 14:59:59;;;;;;;24.08;15.52;;;9.20;99.90;;;;;;6265519;28;20064;-85
2024/03/10 15:03:01;;;;;;;23.23;14.57;;;9.20;99.90;;;;;;6280166;28;20052;-85
2024/03/10 15:06:05;;;;;;;24.77;14.48;;;9.30;99.90;;;;;;6298486;28;20058;-84
2024/03/10 15:09:07;;;;;;;24.02;14.82;;;9.30;99.90;;;;;;6279728;28;20045;-84
2024/03/10 15:12:11;;;;;;;24.83;15.20;;;9.30;99.90;;;;;;6279022;28;20060;-84
2024/03/10 15:15:13;;;;;;;27.75;16.27;;;9.30;99.90;;;;;;6279011;28;20449;-84
2024/03/10 15:18:15;;;;;;;26.27;16.38;;;9.30;99.90;;;;;;6308362;28;20044;-83
2024/03/10 15:21:17;;;;;;;28.20;16.70;;;9.40;99.90;;;;;;6298310;28;20262;-84
2024/03/10 15:24:19;;;;;;;25.65;16.08;;;9.40;99.90;;;;;;6276729;28;20060;-84
2024/03/10 15:27:21;;;;;;;27.92;16.60;;;9.40;99.90;;;;;;6297654;28;20056;-83
2024/03/10 15:30:25;;;;;;;28.80;16.77;;;9.40;99.90;;;;;;6294554;28;20052;-84
2024/03/10 15:33:29;;;;;;;29.20;17.77;;;9.40;99.90;;;;;;6304133;28;20446;-85
2024/03/10 15:36:33;;;;;;;28.70;17.73;;;9.30;99.90;;;;;;6295451;28;20084;-84
2024/03/10 15:39:35;;;;;;;31.75;18.75;;;9.30;99.90;;;;;;6296895;28;20470;-83
2024/03/10 15:42:37;;;;;;;32.10;18.70;;;9.30;99.90;;;;;;6278715;28;20048;-83
2024/03/10 15:45:41;;;;;;;33.78;19.83;;;9.20;99.90;;;;;;6278539;28;20490;-84
2024/03/10 15:48:44;;;;;;;34.95;20.13;;;9.20;99.90;;;;;;6296226;28;20048;-85
2024/03/10 15:51:46;;;;;;;36.28;21.05;;;9.20;99.90;;;;;;6296528;28;20412;-84
2024/03/10 15:54:48;;;;;;;37.17;21.55;;;9.10;99.90;;;;;;6296238;28;20380;-84
2024/03/10 15:57:52;;;;;;;36.30;21.15;;;9.10;99.90;;;;;;6291073;28;20052;-81
2024/03/10 16:00:57;;;;;;;40.00;22.45;;;9.10;99.90;;;;;;6278604;28;20056;-84
2024/03/10 16:03:59;;;;;;;38.28;22.58;;;9.20;99.90;;;;;;6278975;28;20078;-85
2024/03/10 16:07:00;;;;;;;39.17;23.45;;;9.20;99.90;;;;;;6295954;28;20052;-85
2024/03/10 16:10:02;;;;;;;39.22;22.70;;;9.20;99.90;;;;;;6295765;28;20053;-84
2024/03/10 16:13:07;;;;;;;40.55;23.30;;;9.10;99.90;;;;;;6277976;28;20101;-84